Terminal Aerodrome Forecast
Issued by NWS

Home | Current Version | Previous Version | Text Only | Print | Product List | Glossary Off
Versions: 1 2 3 4 5 6 7 8 9 10 11 12 13 14

000
FTUS43 KGRB 021135
TAFMTW
TAF
KMTW 021135Z 0212/0312 21009KT P6SM VCSH SCT060 BKN100
     FM021500 24012G20KT P6SM SCT035 SCT100
     FM022300 28010G17KT P6SM SCT040 BKN100
      TEMPO 0223/0301 3SM TSRA BR BKN035CB
     FM030100 33007KT P6SM SCT035=

USA.gov is the U.S. government's official web portal to all federal, state and local government web resources and services.